Latest Weather Observations for Thredbo Top Station

IDN60901

Issued at 2:11 am EST Thursday 28 May 2015 (issued every 10 minutes, with the page automatically refreshed every 10 minutes)

About weather observations | Map of Canberra area stations | Latest observations for Canberra area | Other Formats
Station Details ID: 071032 Name: THREDBO AWS Lat: -36.49 Lon: 148.29 Height: 1957.0 m
Data from the previous 72 hours. | See also: Recent months at Thredbo Top Station
Date/Time
EST
Tmp

°C
App
Tmp
°C
Dew
Point
°C
Rel
Hum
%
Delta-T

°C
Wind Press
QNH
hPa
Press
MSL
hPa
Rain
since
9 am
mm
Dir
 
Spd
km/h
Gust
km/h
Spd
kts
Gust
kts
28/02:00am 2.1 -6.6 2.0 99 0.0 NW 37 56 20 30 1021.4 1023.7 6.4
28/01:30am 2.3 -6.4 2.2 99 0.0 NW 37 57 20 31 1021.5 1023.8 6.4
28/01:00am 2.3 -7.1 2.2 99 0.0 NW 41 61 22 33 1021.6 1023.9 6.4
28/12:34am 2.2 -7.2 2.1 99 0.0 NW 41 63 22 34 1021.9 1024.1 6.4
28/12:30am 2.1 -7.7 2.0 99 0.0 NW 43 57 23 31 1021.8 1024.0 6.4
28/12:09am 1.6 -7.6 1.5 99 0.0 NW 39 59 21 32 1022.1 1024.4 6.2
 
Date/Time
EST
Tmp

°C
App
Tmp
°C
Dew
Point
°C
Rel
Hum
%
Delta-T

°C
Wind Press
QNH
hPa
Press
MSL
hPa
Rain
since
9 am
mm
Dir
 
Spd
km/h
Gust
km/h
Spd
kts
Gust
kts
27/11:32pm 2.3 -5.0 2.2 99 0.0 WNW 30 48 16 26 1022.4 1024.7 5.6
27/11:30pm 2.3 -5.4 2.2 99 0.0 NW 32 48 17 26 1022.4 1024.7 5.6
27/11:10pm 2.2 -6.1 2.1 99 0.0 NW 35 54 19 29 1022.6 1024.8 5.6
27/11:00pm 2.1 -6.6 2.0 99 0.0 NW 37 48 20 26 1022.7 1025.0 5.4
27/10:30pm 2.2 -6.9 2.1 99 0.0 NW 39 54 21 29 1022.4 1024.7 4.8
27/10:00pm 2.4 -7.4 2.3 99 0.0 NW 43 61 23 33 1022.4 1024.7 4.6
27/09:30pm 2.2 -6.9 2.1 99 0.0 NW 39 56 21 30 1022.6 1024.8 4.6
27/09:05pm 2.1 -7.9 2.0 99 0.0 NW 44 63 24 34 1022.6 1024.8 4.6
27/09:00pm 2.0 -8.4 1.9 99 0.0 NW 46 63 25 34 1022.4 1024.7 4.6
27/08:30pm 2.1 -8.3 2.0 99 0.0 NW 46 59 25 32 1022.2 1024.5 4.4
27/08:08pm 2.0 -7.9 1.9 99 0.0 NW 43 61 23 33 1022.2 1024.5 4.4
27/08:00pm 1.9 -8.5 1.8 99 0.0 NW 46 61 25 33 1022.2 1024.5 4.4
27/07:37pm 2.0 -8.0 1.9 99 0.0 NW 44 63 24 34 1022.3 1024.6 4.4
27/07:30pm 2.1 -9.1 2.0 99 0.0 NW 50 65 27 35 1022.4 1024.7 4.2
27/07:19pm 2.0 -8.8 1.9 99 0.0 NW 48 67 26 36 1022.3 1024.6 4.2
27/07:00pm 1.9 -9.3 1.8 99 0.0 NW 50 67 27 36 1022.0 1024.3 4.2
27/06:30pm 2.2 -7.8 2.1 99 0.0 NW 44 59 24 32 1021.6 1023.9 4.2
27/06:01pm 2.4 -8.7 2.3 99 0.0 NW 50 69 27 37 1021.5 1023.8 4.2
27/06:00pm 2.4 -9.1 2.3 99 0.0 NW 52 69 28 37 1021.4 1023.7 4.2
27/05:30pm 2.4 -7.4 2.3 99 0.0 NW 43 61 23 33 1021.4 1023.7 4.2
27/05:08pm 2.5 -6.9 2.4 99 0.0 NW 41 59 22 32 1021.8 1024.0 3.8
27/05:00pm 2.6 -7.3 2.5 99 0.0 NW 44 59 24 32 1021.6 1023.9 3.8
27/04:30pm 2.6 -7.7 2.5 99 0.0 NW 46 59 25 32 1021.4 1023.7 3.6
27/04:00pm 2.3 -6.7 2.2 99 0.0 NW 39 59 21 32 1021.5 1023.8 3.4
27/03:30pm 2.3 -6.7 2.2 99 0.0 NW 39 59 21 32 1021.5 1023.8 3.4
27/03:20pm 2.1 -5.8 2.0 99 0.0 NW 33 52 18 28 1021.5 1023.8 3.2
27/03:00pm 2.0 -5.8 1.9 99 0.0 NW 32 44 17 24 1021.6 1023.9 3.2
27/02:37pm 2.0 -6.3 1.9 99 0.0 NW 35 54 19 29 1021.4 1023.7 3.0
27/02:30pm 1.9 -7.2 1.8 99 0.0 NW 39 54 21 29 1021.4 1023.7 3.0
27/02:03pm 1.9 -8.0 1.8 99 0.0 NW 43 61 23 33 1021.5 1023.8 2.8
27/02:00pm 1.9 -7.6 1.8 99 0.0 NW 41 54 22 29 1021.5 1023.8 2.8
27/01:30pm 2.1 -7.4 2.0 99 0.0 NW 41 59 22 32 1021.9 1024.1 2.8
27/01:26pm 2.2 -6.9 2.1 99 0.0 NW 39 57 21 31 1021.9 1024.1 2.8
27/01:00pm 2.1 -6.6 2.0 99 0.0 NW 37 52 20 28 1022.0 1024.3 2.4
27/12:41pm 2.4 -5.3 2.3 99 0.0 NW 32 52 17 28 1022.2 1024.5 2.0
27/12:30pm 2.2 -5.2 2.1 99 0.0 NW 30 43 16 23 1022.3 1024.6 1.6
27/12:00pm 1.3 -7.2 1.2 99 0.0 NW 35 48 19 26 1022.9 1025.2 1.0
27/11:30am 2.1 -6.2 2.0 99 0.0 NW 35 48 19 26 1023.0 1025.3 0.0
27/11:00am 1.7 -6.3 1.6 99 0.0 NW 33 41 18 22 1023.5 1025.8 0.0
27/10:30am 1.5 -6.5 1.4 99 0.0 NW 33 44 18 24 - - 0.0
27/10:00am 2.1 -5.7 2.0 99 0.0 WNW 32 46 17 25 - - 0.0
27/09:48am 2.1 -5.3 2.0 99 0.0 WNW 30 48 16 26 - - 0.0
27/09:30am 2.2 -6.6 1.6 96 0.3 NW 37 50 20 27 - - 0.0
27/09:00am 1.6 -7.3 0.7 94 0.4 NW 37 50 20 27 - - 0.0
27/08:30am 1.7 -6.4 -0.4 86 0.8 WNW 32 44 17 24 - - 0.0
27/08:00am 1.7 -5.6 -0.1 88 0.7 WNW 28 37 15 20 - - 0.0
27/07:30am 1.6 -5.5 -1.6 79 1.2 WNW 26 39 14 21 - - 0.0
27/07:00am 1.3 -5.4 -4.5 65 2.2 WNW 22 32 12 17 - - 0.0
27/06:30am 1.0 -5.3 -6.1 59 2.5 WNW 19 32 10 17 - - 0.0
27/06:00am 0.8 -5.7 -7.4 54 2.8 WNW 19 28 10 15 - - 0.0
27/05:30am 0.7 -5.2 -9.3 47 3.2 WNW 15 24 8 13 - - 0.0
27/05:00am 0.6 -5.8 -12.1 38 3.7 WNW 17 26 9 14 - - 0.0
27/04:30am 1.0 -5.5 -13.4 33 4.1 WNW 17 24 9 13 - - 0.0
27/04:00am 1.1 -5.0 -13.3 33 4.2 WNW 15 20 8 11 - - 0.0
27/03:30am 1.5 -4.9 -12.3 35 4.1 NW 17 22 9 12 - - 0.0
27/03:00am 2.1 -3.8 -10.4 39 4.0 NW 15 22 8 12 - - 0.0
27/02:30am 2.3 -4.3 -9.0 43 3.8 NW 19 26 10 14 1023.6 1025.9 0.0
27/02:00am 2.3 -5.0 -10.9 37 4.2 NW 22 30 12 16 1023.8 1026.1 0.0
27/01:30am 2.6 -5.2 -12.0 33 4.5 NW 24 37 13 20 1023.9 1026.3 0.0
27/01:00am 3.1 -3.9 -12.0 32 4.7 NW 20 30 11 16 1024.0 1026.4 0.0
27/12:30am 3.1 -3.9 -11.6 33 4.7 NNW 20 24 11 13 1024.3 1026.6 0.0
27/12:00am 2.4 -4.3 -10.8 37 4.2 NNW 19 20 10 11 1024.6 1027.0 0.0
 
Date/Time
EST
Tmp

°C
App
Tmp
°C
Dew
Point
°C
Rel
Hum
%
Delta-T

°C
Wind Press
QNH
hPa
Press
MSL
hPa
Rain
since
9 am
mm
Dir
 
Spd
km/h
Gust
km/h
Spd
kts
Gust
kts
26/11:30pm 2.0 -4.2 -9.2 43 3.7 NNW 17 19 9 10 1024.7 1027.1 0.0
26/11:00pm 1.2 -4.5 -7.5 52 2.9 N 15 17 8 9 1024.8 1027.2 0.0
26/10:30pm 1.5 -4.5 -6.5 55 2.8 NNW 17 19 9 10 1025.1 1027.4 0.0
26/10:00pm 1.3 -4.5 -4.7 64 2.2 NNW 17 17 9 9 1025.3 1027.7 0.0
26/09:30pm 1.6 -2.2 -5.1 61 2.5 NW 6 9 3 5 1025.5 1027.9 0.0
26/09:00pm 2.8 -1.0 -5.6 54 3.1 W 6 7 3 4 1025.8 1028.1 0.0
26/08:30pm 2.2 -1.6 -5.9 55 2.9 W 6 7 3 4 1026.0 1028.4 0.0
26/08:00pm 2.2 -1.8 -7.4 49 3.3 WSW 6 9 3 5 1025.9 1028.3 0.0
26/07:30pm 2.5 -0.3 -6.8 50 3.3 CALM 0 4 0 2 1026.4 1028.9 0.0
26/07:00pm 2.0 -2.9 -6.6 53 3.0 NNW 11 15 6 8 1026.1 1028.5 0.0
26/06:30pm 2.7 -1.3 -7.7 46 3.6 NNW 6 13 3 7 1025.9 1028.3 0.0
26/06:00pm 1.4 -3.8 -6.2 57 2.7 NNW 13 13 7 7 1026.1 1028.5 0.0
26/05:30pm 1.9 -2.7 -7.7 49 3.3 N 9 11 5 6 1026.1 1028.5 0.0
26/05:00pm 2.5 -2.8 -7.6 47 3.5 NNE 13 15 7 8 1025.8 1028.1 0.0
26/04:30pm 2.7 -1.0 -8.0 45 3.7 NNE 4 9 2 5 1025.6 1028.0 0.0
26/04:00pm 3.9 -0.4 -12.1 30 5.1 E 6 7 3 4 1025.8 1028.1 0.0
26/03:30pm 4.2 0.7 -11.0 32 5.0 SSE 2 4 1 2 1025.5 1027.9 0.0
26/03:00pm 5.3 1.8 -10.4 31 5.0 SE 2 4 1 2 1025.6 1028.0 0.0
26/02:30pm 6.2 1.9 -10.9 28 5.5 E 6 11 3 6 1025.4 1027.8 0.0
26/02:00pm 6.4 2.3 -8.7 33 5.1 SE 6 11 3 6 1025.6 1028.0 0.0
26/01:30pm 6.6 2.2 -13.0 23 6.1 SSE 6 9 3 5 1026.0 1028.4 0.0
26/01:00pm 6.7 2.2 -14.6 20 6.3 SSE 6 11 3 6 1026.3 1028.7 0.0
26/12:30pm 7.6 3.2 -12.7 22 6.4 SSE 6 11 3 6 1026.6 1029.0 0.0
26/12:00pm 7.1 2.9 -17.0 16 6.8 SE 4 9 2 5 1027.0 1029.4 0.0
26/11:30am 7.2 3.0 -16.9 16 6.8 SSE 4 9 2 5 1027.7 1030.2 0.0
26/11:00am 7.0 2.8 -15.7 18 6.6 SE 4 9 2 5 1028.3 1030.7 0.0
26/10:30am 7.2 3.0 -16.2 17 6.8 SSE 4 11 2 6 1028.6 1031.1 0.0
26/10:00am 6.2 2.3 -19.3 14 7.0 SSE 2 6 1 3 1028.8 1031.3 0.0
26/09:30am 6.7 2.8 -18.9 14 7.3 NE 2 4 1 2 1028.8 1031.3 0.0
26/09:00am 5.9 1.5 -22.3 11 7.2 NE 4 7 2 4 1029.1 1031.6 0.0
26/08:30am 4.1 0.3 -15.7 22 5.8 NW 2 6 1 3 1029.2 1031.7 0.0
26/08:00am 1.6 -2.2 -15.8 26 4.7 NNW 2 6 1 3 1029.3 1031.8 0.0
26/07:30am -0.7 -5.5 -16.9 28 4.1 NW 7 11 4 6 1029.3 1031.8 0.0
26/07:00am 1.9 -3.1 -24.4 12 5.8 W 7 9 4 5 1029.1 1031.6 0.0
26/06:30am 0.7 -4.6 -20.9 18 5.1 WSW 9 9 5 5 1028.7 1031.2 0.0
26/06:00am -0.7 -4.9 -17.3 27 4.1 NW 4 9 2 5 1028.4 1030.9 0.0
26/05:30am 3.0 -3.4 -20.3 16 5.9 W 15 17 8 9 1028.3 1030.7 0.0
26/05:00am 0.9 -6.4 -22.0 16 5.2 WNW 19 19 10 10 1028.5 1031.0 0.0
26/04:30am 0.8 -6.6 -21.4 17 5.1 WNW 20 22 11 12 1028.7 1031.2 0.0
26/04:00am 0.9 -6.6 -22.0 16 5.2 WNW 20 22 11 12 1028.7 1031.2 0.0
26/03:30am 1.0 -6.4 -21.9 16 5.3 WNW 20 20 11 11 1028.7 1031.2 0.0
26/03:00am 0.4 -6.8 -20.5 19 4.9 WNW 19 20 10 11 1029.0 1031.5 0.0
26/02:30am 0.6 -6.2 -20.9 18 5.0 WNW 17 20 9 11 1029.2 1031.7 0.0
26/02:00am 0.7 -6.7 -20.9 18 5.0 WNW 20 22 11 12 1029.4 1031.9 0.0
26/01:30am 0.1 -8.0 -20.1 20 4.8 WNW 24 24 13 13 1029.5 1032.0 0.0
26/01:00am 0.2 -7.9 -20.1 20 4.7 WNW 24 24 13 13 1029.5 1032.0 0.0
26/12:30am 0.7 -6.7 -20.2 19 5.0 WNW 20 20 11 11 1029.6 1032.2 0.0
26/12:00am 1.2 -5.7 -21.1 17 5.2 WNW 17 19 9 10 1029.8 1032.3 0.0
 
Date/Time
EST
Tmp

°C
App
Tmp
°C
Dew
Point
°C
Rel
Hum
%
Delta-T

°C
Wind Press
QNH
hPa
Press
MSL
hPa
Rain
since
9 am
mm
Dir
 
Spd
km/h
Gust
km/h
Spd
kts
Gust
kts
25/11:30pm 1.1 -6.3 -19.9 19 5.1 WNW 20 22 11 12 1030.0 1032.5 0.0
25/11:00pm 1.3 -5.9 -19.1 20 5.0 WNW 19 20 10 11 1029.9 1032.4 0.0
25/10:30pm 1.8 -5.4 -19.9 18 5.4 WNW 19 20 10 11 1030.1 1032.6 0.0
25/10:00pm 2.1 -5.1 -19.1 19 5.3 NW 19 20 10 11 1030.2 1032.8 0.0
25/09:30pm 2.8 -4.6 -20.5 16 5.8 NW 20 24 11 13 1030.3 1032.9 0.0
25/09:00pm 2.5 -4.9 -20.7 16 5.7 NW 20 24 11 13 1030.3 1032.9 0.0
25/08:30pm 1.2 -6.2 -19.2 20 5.1 WNW 20 22 11 12 1030.3 1032.9 0.0
25/08:00pm 1.1 -6.3 -19.3 20 5.0 NW 20 22 11 12 1030.3 1032.9 0.0
25/07:30pm 1.8 -5.3 -18.7 20 5.2 WNW 19 20 10 11 1030.2 1032.8 0.0
25/07:00pm 2.4 -4.7 -17.7 21 5.3 NW 19 22 10 12 1029.9 1032.4 0.0
25/06:30pm 2.4 -4.4 -18.8 19 5.5 WNW 17 19 9 10 1029.8 1032.3 0.0
25/06:00pm 3.0 -3.8 -20.3 16 5.8 WNW 17 19 9 10 1029.6 1032.2 0.0
25/05:30pm 2.3 -5.0 -18.9 19 5.4 WNW 20 22 11 12 1029.2 1031.7 0.0
25/05:00pm 3.4 -4.0 -20.7 15 6.0 WNW 20 24 11 13 1029.0 1031.5 0.0
25/04:30pm 3.7 -4.2 -24.0 11 6.5 WNW 22 26 12 14 1029.0 1031.5 0.0
25/04:00pm 3.9 -3.5 -19.6 16 6.1 WNW 20 24 11 13 1029.1 1031.6 0.0
25/03:30pm 3.7 -4.8 -19.7 16 6.1 NW 26 30 14 16 1029.1 1031.6 0.0
25/03:00pm 3.9 -4.6 -19.6 16 6.1 NW 26 32 14 17 1029.1 1031.6 0.0
25/02:30pm 4.6 -4.0 -21.4 13 6.6 NW 26 32 14 17 1029.1 1031.6 0.0
25/02:00pm 4.5 -3.6 -19.8 15 6.4 NW 24 30 13 16 1029.2 1031.7 0.0
25/01:30pm 4.6 -4.3 -19.0 16 6.4 NW 28 33 15 18 1029.3 1031.8 0.0
25/01:00pm 4.7 -5.0 -20.5 14 6.5 NW 32 37 17 20 1029.5 1032.0 0.0
25/12:30pm 5.6 -2.8 -17.5 17 6.6 NW 26 33 14 18 1029.8 1032.3 0.0
25/12:00pm 6.5 -1.2 -19.0 14 7.1 NW 22 28 12 15 1029.8 1032.3 0.0
25/11:30am 6.6 -1.5 -19.0 14 7.2 NW 24 30 13 16 1030.3 1032.9 0.0
25/11:00am 5.5 -4.2 -21.6 12 7.0 NW 32 39 17 21 - - 0.0
25/10:30am 5.0 -4.3 -21.1 13 6.8 NW 30 37 16 20 - - 0.0
25/10:00am 4.9 -4.3 -18.8 16 6.5 NW 30 39 16 21 - - 0.0
25/09:30am 5.2 -3.3 -19.3 15 6.7 NW 26 32 14 17 - - 0.0
25/09:00am 5.0 -3.1 -18.0 17 6.4 NW 24 32 13 17 - - 0.0
25/08:30am 4.7 -3.8 -18.9 16 6.4 NW 26 33 14 18 - - 0.0
25/08:00am 4.7 -3.8 -20.5 14 6.6 NW 26 32 14 17 - - 0.0
25/07:30am 4.8 -4.1 -20.4 14 6.6 NW 28 32 15 17 - - 0.0
25/07:00am 4.2 -4.7 -18.6 17 6.2 NW 28 32 15 17 - - 0.0
25/06:30am 4.3 -4.5 -17.9 18 6.1 NW 28 33 15 18 - - 0.0
25/06:00am 4.7 -3.8 -18.9 16 6.4 NW 26 32 14 17 - - 0.0
25/05:30am 4.4 -3.6 -17.2 19 6.1 NW 24 30 13 16 - - 0.0
25/05:00am 4.6 -4.2 -17.0 19 6.1 NW 28 33 15 18 - - 0.0
25/04:30am 4.7 -3.3 -16.9 19 6.2 NW 24 28 13 15 - - 0.0
25/04:00am 3.9 -4.4 -15.3 23 5.6 NW 26 32 14 17 - - 0.0
25/03:30am 3.9 -4.8 -14.8 24 5.5 NW 28 33 15 18 - - 0.0
25/03:00am 4.3 -4.5 -17.2 19 6.0 NW 28 33 15 18 - - 0.0
25/02:30am 4.7 -4.4 -16.3 20 6.1 NW 30 33 16 18 - - 0.0

Latest Capital City Observations: Canberra | Sydney | Melbourne | Brisbane | Adelaide | Perth | Hobart | Darwin

Other Formats:

Comma delimited format used in spreadsheet applications
http://www.bom.gov.au/fwo/IDN60903/IDN60903.95909.axf

JavaScript Object Notation format (JSON) in row-major order
http://www.bom.gov.au/fwo/IDN60903/IDN60903.95909.json